sensor_id;sensor_type;location;lat;lon;timestamp;temperature;humidity
55785;DHT22;41709;52.536;5.688;2024-02-15T00:02:02;11.60;97.40
55785;DHT22;41709;52.536;5.688;2024-02-15T00:04:28;11.60;97.30
55785;DHT22;41709;52.536;5.688;2024-02-15T00:06:54;11.60;97.30
55785;DHT22;41709;52.536;5.688;2024-02-15T00:09:19;11.50;97.30
55785;DHT22;41709;52.536;5.688;2024-02-15T00:11:45;11.60;97.40
55785;DHT22;41709;52.536;5.688;2024-02-15T00:14:10;11.60;97.40
55785;DHT22;41709;52.536;5.688;2024-02-15T00:16:37;11.60;97.30
55785;DHT22;41709;52.536;5.688;2024-02-15T00:19:03;11.60;97.30
55785;DHT22;41709;52.536;5.688;2024-02-15T00:21:28;11.60;97.20
55785;DHT22;41709;52.536;5.688;2024-02-15T00:23:54;11.60;97.30
55785;DHT22;41709;52.536;5.688;2024-02-15T00:26:22;11.70;97.10
55785;DHT22;41709;52.536;5.688;2024-02-15T00:28:47;11.70;97.10
55785;DHT22;41709;52.536;5.688;2024-02-15T00:31:14;11.60;97.20
55785;DHT22;41709;52.536;5.688;2024-02-15T00:33:40;11.70;97.20
55785;DHT22;41709;52.536;5.688;2024-02-15T00:36:06;11.70;97.30
55785;DHT22;41709;52.536;5.688;2024-02-15T00:38:32;11.60;97.30
55785;DHT22;41709;52.536;5.688;2024-02-15T00:40:58;11.60;97.30
55785;DHT22;41709;52.536;5.688;2024-02-15T00:43:26;11.60;97.30
55785;DHT22;41709;52.536;5.688;2024-02-15T00:45:51;11.60;97.40
55785;DHT22;41709;52.536;5.688;2024-02-15T00:48:17;11.60;97.40
55785;DHT22;41709;52.536;5.688;2024-02-15T00:50:42;11.60;97.40
55785;DHT22;41709;52.536;5.688;2024-02-15T00:53:08;11.60;97.40
55785;DHT22;41709;52.536;5.688;2024-02-15T00:55:33;11.60;97.30
55785;DHT22;41709;52.536;5.688;2024-02-15T00:57:59;11.70;97.20
55785;DHT22;41709;52.536;5.688;2024-02-15T01:00:25;11.70;97.20
55785;DHT22;41709;52.536;5.688;2024-02-15T01:02:51;11.60;97.30
55785;DHT22;41709;52.536;5.688;2024-02-15T01:05:18;11.70;97.30
55785;DHT22;41709;52.536;5.688;2024-02-15T01:07:44;11.70;97.20
55785;DHT22;41709;52.536;5.688;2024-02-15T01:10:10;11.70;97.20
55785;DHT22;41709;52.536;5.688;2024-02-15T01:12:35;11.70;97.30
55785;DHT22;41709;52.536;5.688;2024-02-15T01:15:01;11.70;97.40
55785;DHT22;41709;52.536;5.688;2024-02-15T01:17:27;11.80;97.40
55785;DHT22;41709;52.536;5.688;2024-02-15T01:19:52;11.70;97.40
55785;DHT22;41709;52.536;5.688;2024-02-15T01:22:18;11.80;97.40
55785;DHT22;41709;52.536;5.688;2024-02-15T01:24:45;11.80;97.30
55785;DHT22;41709;52.536;5.688;2024-02-15T01:27:10;11.80;97.20
55785;DHT22;41709;52.536;5.688;2024-02-15T01:29:36;11.90;97.20
55785;DHT22;41709;52.536;5.688;2024-02-15T01:32:01;12.00;97.20
55785;DHT22;41709;52.536;5.688;2024-02-15T01:34:28;11.90;97.20
55785;DHT22;41709;52.536;5.688;2024-02-15T01:36:53;11.90;97.10
55785;DHT22;41709;52.536;5.688;2024-02-15T01:39:19;11.90;97.10
55785;DHT22;41709;52.536;5.688;2024-02-15T01:41:48;12.00;97.10
55785;DHT22;41709;52.536;5.688;2024-02-15T01:44:17;11.90;96.90
55785;DHT22;41709;52.536;5.688;2024-02-15T01:46:44;12.00;97.00
55785;DHT22;41709;52.536;5.688;2024-02-15T01:49:11;12.00;97.00
55785;DHT22;41709;52.536;5.688;2024-02-15T01:51:37;12.00;97.00
55785;DHT22;41709;52.536;5.688;2024-02-15T01:54:03;12.10;97.00
55785;DHT22;41709;52.536;5.688;2024-02-15T01:56:30;12.10;97.00
55785;DHT22;41709;52.536;5.688;2024-02-15T01:58:57;12.10;96.90
55785;DHT22;41709;52.536;5.688;2024-02-15T02:01:23;12.10;97.00
55785;DHT22;41709;52.536;5.688;2024-02-15T02:03:49;12.10;96.90
55785;DHT22;41709;52.536;5.688;2024-02-15T02:06:15;12.10;96.90
55785;DHT22;41709;52.536;5.688;2024-02-15T02:08:41;12.20;96.80
55785;DHT22;41709;52.536;5.688;2024-02-15T02:11:07;12.20;96.80
55785;DHT22;41709;52.536;5.688;2024-02-15T02:13:32;12.20;96.80
55785;DHT22;41709;52.536;5.688;2024-02-15T02:15:58;12.20;96.80
55785;DHT22;41709;52.536;5.688;2024-02-15T02:18:25;12.20;96.80
55785;DHT22;41709;52.536;5.688;2024-02-15T02:20:50;12.20;96.70
55785;DHT22;41709;52.536;5.688;2024-02-15T02:23:17;12.20;96.70
55785;DHT22;41709;52.536;5.688;2024-02-15T02:25:45;12.20;96.70
55785;DHT22;41709;52.536;5.688;2024-02-15T02:28:14;12.30;96.70
55785;DHT22;41709;52.536;5.688;2024-02-15T02:30:41;12.30;96.60
55785;DHT22;41709;52.536;5.688;2024-02-15T02:33:13;12.30;96.70
55785;DHT22;41709;52.536;5.688;2024-02-15T02:35:47;12.30;96.60
55785;DHT22;41709;52.536;5.688;2024-02-15T02:38:14;12.30;96.60
55785;DHT22;41709;52.536;5.688;2024-02-15T02:40:40;12.30;96.60
55785;DHT22;41709;52.536;5.688;2024-02-15T02:43:06;12.30;96.60
55785;DHT22;41709;52.536;5.688;2024-02-15T02:45:32;12.40;96.60
55785;DHT22;41709;52.536;5.688;2024-02-15T02:47:57;12.40;96.50
55785;DHT22;41709;52.536;5.688;2024-02-15T02:50:23;12.40;96.50
55785;DHT22;41709;52.536;5.688;2024-02-15T02:52:49;12.40;96.30
55785;DHT22;41709;52.536;5.688;2024-02-15T02:55:16;12.40;96.30
55785;DHT22;41709;52.536;5.688;2024-02-15T02:57:41;12.40;96.30
55785;DHT22;41709;52.536;5.688;2024-02-15T03:00:12;12.40;96.30
55785;DHT22;41709;52.536;5.688;2024-02-15T03:02:42;12.40;96.30
55785;DHT22;41709;52.536;5.688;2024-02-15T03:05:12;12.50;96.20
55785;DHT22;41709;52.536;5.688;2024-02-15T03:07:39;12.50;96.20
55785;DHT22;41709;52.536;5.688;2024-02-15T03:10:08;12.50;96.10
55785;DHT22;41709;52.536;5.688;2024-02-15T03:12:36;12.50;96.00
55785;DHT22;41709;52.536;5.688;2024-02-15T03:15:05;12.50;96.10
55785;DHT22;41709;52.536;5.688;2024-02-15T03:17:40;12.50;96.00
55785;DHT22;41709;52.536;5.688;2024-02-15T03:20:06;12.50;96.10
55785;DHT22;41709;52.536;5.688;2024-02-15T03:23:00;12.50;96.00
55785;DHT22;41709;52.536;5.688;2024-02-15T03:25:26;12.50;96.10
55785;DHT22;41709;52.536;5.688;2024-02-15T03:27:58;12.50;96.10
55785;DHT22;41709;52.536;5.688;2024-02-15T03:30:26;12.50;96.10
55785;DHT22;41709;52.536;5.688;2024-02-15T03:32:53;12.50;96.00
55785;DHT22;41709;52.536;5.688;2024-02-15T03:35:20;12.50;96.10
55785;DHT22;41709;52.536;5.688;2024-02-15T03:37:45;12.50;96.10
55785;DHT22;41709;52.536;5.688;2024-02-15T03:40:12;12.50;96.10
55785;DHT22;41709;52.536;5.688;2024-02-15T03:42:38;12.50;96.10
55785;DHT22;41709;52.536;5.688;2024-02-15T03:45:04;12.50;96.10
55785;DHT22;41709;52.536;5.688;2024-02-15T03:47:32;12.50;96.00
55785;DHT22;41709;52.536;5.688;2024-02-15T03:50:02;12.50;96.00
55785;DHT22;41709;52.536;5.688;2024-02-15T03:52:28;12.50;96.00
55785;DHT22;41709;52.536;5.688;2024-02-15T03:54:55;12.50;96.00
55785;DHT22;41709;52.536;5.688;2024-02-15T03:57:23;12.50;96.00
55785;DHT22;41709;52.536;5.688;2024-02-15T03:59:48;12.50;96.00
55785;DHT22;41709;52.536;5.688;2024-02-15T04:02:20;12.60;96.00
55785;DHT22;41709;52.536;5.688;2024-02-15T04:04:46;12.60;96.00
55785;DHT22;41709;52.536;5.688;2024-02-15T04:07:18;12.60;96.00
55785;DHT22;41709;52.536;5.688;2024-02-15T04:09:48;12.60;96.00
55785;DHT22;41709;52.536;5.688;2024-02-15T04:12:14;12.60;96.00
55785;DHT22;41709;52.536;5.688;2024-02-15T04:14:40;12.60;95.90
55785;DHT22;41709;52.536;5.688;2024-02-15T04:17:06;12.60;95.90
55785;DHT22;41709;52.536;5.688;2024-02-15T04:19:32;12.60;95.90
55785;DHT22;41709;52.536;5.688;2024-02-15T04:21:58;12.60;95.90
55785;DHT22;41709;52.536;5.688;2024-02-15T04:24:26;12.60;95.90
55785;DHT22;41709;52.536;5.688;2024-02-15T04:26:51;12.60;95.90
55785;DHT22;41709;52.536;5.688;2024-02-15T04:29:17;12.60;95.90
55785;DHT22;41709;52.536;5.688;2024-02-15T04:31:48;12.60;95.90
55785;DHT22;41709;52.536;5.688;2024-02-15T04:34:18;12.60;95.90
55785;DHT22;41709;52.536;5.688;2024-02-15T04:36:47;12.60;95.90
55785;DHT22;41709;52.536;5.688;2024-02-15T04:39:20;12.60;95.80
55785;DHT22;41709;52.536;5.688;2024-02-15T04:41:55;12.60;95.80
55785;DHT22;41709;52.536;5.688;2024-02-15T04:44:21;12.60;95.80
55785;DHT22;41709;52.536;5.688;2024-02-15T04:46:47;12.60;95.80
55785;DHT22;41709;52.536;5.688;2024-02-15T04:49:15;12.60;95.80
55785;DHT22;41709;52.536;5.688;2024-02-15T04:51:41;12.60;95.80
55785;DHT22;41709;52.536;5.688;2024-02-15T04:54:07;12.60;95.70
55785;DHT22;41709;52.536;5.688;2024-02-15T04:56:34;12.60;95.80
55785;DHT22;41709;52.536;5.688;2024-02-15T04:59:01;12.60;95.70
55785;DHT22;41709;52.536;5.688;2024-02-15T05:01:27;12.60;95.80
55785;DHT22;41709;52.536;5.688;2024-02-15T05:03:54;12.50;95.80
55785;DHT22;41709;52.536;5.688;2024-02-15T05:06:21;12.50;95.80
55785;DHT22;41709;52.536;5.688;2024-02-15T05:08:46;12.50;95.80
55785;DHT22;41709;52.536;5.688;2024-02-15T05:11:13;12.50;95.90
55785;DHT22;41709;52.536;5.688;2024-02-15T05:13:44;12.50;95.90
55785;DHT22;41709;52.536;5.688;2024-02-15T05:16:10;12.50;95.80
55785;DHT22;41709;52.536;5.688;2024-02-15T05:18:36;12.60;95.80
55785;DHT22;41709;52.536;5.688;2024-02-15T05:21:02;12.60;95.80
55785;DHT22;41709;52.536;5.688;2024-02-15T05:23:28;12.50;95.80
55785;DHT22;41709;52.536;5.688;2024-02-15T05:25:54;12.50;96.10
55785;DHT22;41709;52.536;5.688;2024-02-15T05:28:21;12.50;95.90
55785;DHT22;41709;52.536;5.688;2024-02-15T05:31:18;12.50;95.90
55785;DHT22;41709;52.536;5.688;2024-02-15T05:33:49;12.50;96.00
55785;DHT22;41709;52.536;5.688;2024-02-15T05:36:15;12.50;96.00
55785;DHT22;41709;52.536;5.688;2024-02-15T05:38:41;12.50;95.90
55785;DHT22;41709;52.536;5.688;2024-02-15T05:41:07;12.50;96.00
55785;DHT22;41709;52.536;5.688;2024-02-15T05:43:36;12.40;96.10
55785;DHT22;41709;52.536;5.688;2024-02-15T05:46:04;12.40;96.10
55785;DHT22;41709;52.536;5.688;2024-02-15T05:48:32;12.40;96.20
55785;DHT22;41709;52.536;5.688;2024-02-15T05:51:04;12.40;96.20
55785;DHT22;41709;52.536;5.688;2024-02-15T05:53:30;12.40;96.20
55785;DHT22;41709;52.536;5.688;2024-02-15T05:55:56;12.40;96.20
55785;DHT22;41709;52.536;5.688;2024-02-15T05:58:24;12.40;96.20
55785;DHT22;41709;52.536;5.688;2024-02-15T06:00:49;12.40;96.20
55785;DHT22;41709;52.536;5.688;2024-02-15T06:03:19;12.40;96.20
55785;DHT22;41709;52.536;5.688;2024-02-15T06:05:47;12.50;96.20
55785;DHT22;41709;52.536;5.688;2024-02-15T06:08:13;12.50;96.30
55785;DHT22;41709;52.536;5.688;2024-02-15T06:10:39;12.50;96.30
55785;DHT22;41709;52.536;5.688;2024-02-15T06:13:08;12.50;96.30
55785;DHT22;41709;52.536;5.688;2024-02-15T06:15:36;12.40;96.30
55785;DHT22;41709;52.536;5.688;2024-02-15T06:18:02;12.40;96.30
55785;DHT22;41709;52.536;5.688;2024-02-15T06:20:34;12.40;96.30
55785;DHT22;41709;52.536;5.688;2024-02-15T06:23:00;12.40;96.30
55785;DHT22;41709;52.536;5.688;2024-02-15T06:25:28;12.40;96.30
55785;DHT22;41709;52.536;5.688;2024-02-15T06:27:54;12.40;96.30
55785;DHT22;41709;52.536;5.688;2024-02-15T06:30:27;12.40;96.30
55785;DHT22;41709;52.536;5.688;2024-02-15T06:33:11;12.40;96.40
55785;DHT22;41709;52.536;5.688;2024-02-15T06:35:55;12.40;96.40
55785;DHT22;41709;52.536;5.688;2024-02-15T06:38:39;12.40;96.50
55785;DHT22;41709;52.536;5.688;2024-02-15T06:41:23;12.30;96.50
55785;DHT22;41709;52.536;5.688;2024-02-15T06:43:49;12.40;96.60
55785;DHT22;41709;52.536;5.688;2024-02-15T06:46:14;12.30;96.60
55785;DHT22;41709;52.536;5.688;2024-02-15T06:48:42;12.30;96.70
55785;DHT22;41709;52.536;5.688;2024-02-15T06:51:14;12.40;96.60
55785;DHT22;41709;52.536;5.688;2024-02-15T06:53:40;12.30;96.70
55785;DHT22;41709;52.536;5.688;2024-02-15T06:56:08;12.40;96.70
55785;DHT22;41709;52.536;5.688;2024-02-15T06:58:38;12.40;96.70
55785;DHT22;41709;52.536;5.688;2024-02-15T07:01:05;12.40;96.70
55785;DHT22;41709;52.536;5.688;2024-02-15T07:03:31;12.40;96.70
55785;DHT22;41709;52.536;5.688;2024-02-15T07:05:57;12.40;96.60
55785;DHT22;41709;52.536;5.688;2024-02-15T07:08:23;12.40;96.70
55785;DHT22;41709;52.536;5.688;2024-02-15T07:10:50;12.40;96.70
55785;DHT22;41709;52.536;5.688;2024-02-15T07:13:17;12.40;96.70
55785;DHT22;41709;52.536;5.688;2024-02-15T07:15:42;12.30;96.70
55785;DHT22;41709;52.536;5.688;2024-02-15T07:18:09;12.30;96.80
55785;DHT22;41709;52.536;5.688;2024-02-15T07:20:36;12.30;96.80
55785;DHT22;41709;52.536;5.688;2024-02-15T07:23:02;12.30;96.90
55785;DHT22;41709;52.536;5.688;2024-02-15T07:25:28;12.30;96.80
55785;DHT22;41709;52.536;5.688;2024-02-15T07:27:54;12.30;96.90
55785;DHT22;41709;52.536;5.688;2024-02-15T07:30:20;12.30;97.00
55785;DHT22;41709;52.536;5.688;2024-02-15T07:32:45;12.30;96.90
55785;DHT22;41709;52.536;5.688;2024-02-15T07:35:11;12.30;97.00
55785;DHT22;41709;52.536;5.688;2024-02-15T07:37:39;12.30;97.10
55785;DHT22;41709;52.536;5.688;2024-02-15T07:40:05;12.20;97.10
55785;DHT22;41709;52.536;5.688;2024-02-15T07:42:33;12.20;97.10
55785;DHT22;41709;52.536;5.688;2024-02-15T07:45:00;12.20;97.20
55785;DHT22;41709;52.536;5.688;2024-02-15T07:47:26;12.20;97.30
55785;DHT22;41709;52.536;5.688;2024-02-15T07:49:52;12.20;97.30
55785;DHT22;41709;52.536;5.688;2024-02-15T07:52:18;12.20;97.30
55785;DHT22;41709;52.536;5.688;2024-02-15T07:54:44;12.20;97.40
55785;DHT22;41709;52.536;5.688;2024-02-15T07:57:09;12.20;97.40
55785;DHT22;41709;52.536;5.688;2024-02-15T07:59:36;12.30;97.30
55785;DHT22;41709;52.536;5.688;2024-02-15T08:02:02;12.30;97.20
55785;DHT22;41709;52.536;5.688;2024-02-15T08:04:27;12.30;97.30
55785;DHT22;41709;52.536;5.688;2024-02-15T08:06:54;12.30;97.30
55785;DHT22;41709;52.536;5.688;2024-02-15T08:09:20;12.30;97.30
55785;DHT22;41709;52.536;5.688;2024-02-15T08:11:49;12.30;97.30
55785;DHT22;41709;52.536;5.688;2024-02-15T08:14:15;12.30;97.30
55785;DHT22;41709;52.536;5.688;2024-02-15T08:16:40;12.30;97.30
55785;DHT22;41709;52.536;5.688;2024-02-15T08:19:07;12.30;97.30
55785;DHT22;41709;52.536;5.688;2024-02-15T08:21:33;12.30;97.30
55785;DHT22;41709;52.536;5.688;2024-02-15T08:24:02;12.30;97.30
55785;DHT22;41709;52.536;5.688;2024-02-15T08:26:38;12.30;97.30
55785;DHT22;41709;52.536;5.688;2024-02-15T08:29:05;12.30;97.30
55785;DHT22;41709;52.536;5.688;2024-02-15T08:31:31;12.30;97.30
55785;DHT22;41709;52.536;5.688;2024-02-15T08:33:58;12.30;97.30
55785;DHT22;41709;52.536;5.688;2024-02-15T08:36:23;12.30;97.30
55785;DHT22;41709;52.536;5.688;2024-02-15T08:38:52;12.30;97.30
55785;DHT22;41709;52.536;5.688;2024-02-15T08:41:18;12.40;97.30
55785;DHT22;41709;52.536;5.688;2024-02-15T08:43:45;12.40;97.30
55785;DHT22;41709;52.536;5.688;2024-02-15T08:46:11;12.40;97.30
55785;DHT22;41709;52.536;5.688;2024-02-15T08:48:38;12.40;97.20
55785;DHT22;41709;52.536;5.688;2024-02-15T08:51:04;12.40;97.20
55785;DHT22;41709;52.536;5.688;2024-02-15T08:53:31;12.40;97.20
55785;DHT22;41709;52.536;5.688;2024-02-15T08:55:57;12.40;97.30
55785;DHT22;41709;52.536;5.688;2024-02-15T08:58:23;12.40;97.20
55785;DHT22;41709;52.536;5.688;2024-02-15T09:00:48;12.40;97.30
55785;DHT22;41709;52.536;5.688;2024-02-15T09:03:14;12.40;97.20
55785;DHT22;41709;52.536;5.688;2024-02-15T09:05:40;12.40;97.30
55785;DHT22;41709;52.536;5.688;2024-02-15T09:08:06;12.40;97.30
55785;DHT22;41709;52.536;5.688;2024-02-15T09:10:32;12.50;97.30
55785;DHT22;41709;52.536;5.688;2024-02-15T09:12:57;12.50;97.40
55785;DHT22;41709;52.536;5.688;2024-02-15T09:15:23;12.50;97.20
55785;DHT22;41709;52.536;5.688;2024-02-15T09:17:48;12.60;97.20
55785;DHT22;41709;52.536;5.688;2024-02-15T09:20:17;12.70;97.20
55785;DHT22;41709;52.536;5.688;2024-02-15T09:22:51;12.70;97.20
55785;DHT22;41709;52.536;5.688;2024-02-15T09:25:17;12.70;97.10
55785;DHT22;41709;52.536;5.688;2024-02-15T09:27:44;12.70;97.10
55785;DHT22;41709;52.536;5.688;2024-02-15T09:30:12;12.70;97.10
55785;DHT22;41709;52.536;5.688;2024-02-15T09:32:39;12.70;97.10
55785;DHT22;41709;52.536;5.688;2024-02-15T09:35:05;12.70;96.90
55785;DHT22;41709;52.536;5.688;2024-02-15T09:37:36;12.70;97.00
55785;DHT22;41709;52.536;5.688;2024-02-15T09:40:08;12.70;97.00
55785;DHT22;41709;52.536;5.688;2024-02-15T09:42:35;12.70;97.00
55785;DHT22;41709;52.536;5.688;2024-02-15T09:45:04;12.70;97.00
55785;DHT22;41709;52.536;5.688;2024-02-15T09:47:37;12.70;96.90
55785;DHT22;41709;52.536;5.688;2024-02-15T09:50:15;12.70;96.90
55785;DHT22;41709;52.536;5.688;2024-02-15T09:52:47;12.80;96.90
55785;DHT22;41709;52.536;5.688;2024-02-15T09:55:14;12.70;96.90
55785;DHT22;41709;52.536;5.688;2024-02-15T09:57:44;12.80;96.90
55785;DHT22;41709;52.536;5.688;2024-02-15T10:00:12;12.80;96.80
55785;DHT22;41709;52.536;5.688;2024-02-15T10:02:51;12.70;96.80
55785;DHT22;41709;52.536;5.688;2024-02-15T10:05:23;12.80;96.90
55785;DHT22;41709;52.536;5.688;2024-02-15T10:07:48;12.70;96.90
55785;DHT22;41709;52.536;5.688;2024-02-15T10:10:22;12.70;97.00
55785;DHT22;41709;52.536;5.688;2024-02-15T10:12:51;12.70;96.90
55785;DHT22;41709;52.536;5.688;2024-02-15T10:17:58;12.70;97.00
55785;DHT22;41709;52.536;5.688;2024-02-15T10:20:25;12.80;96.90
55785;DHT22;41709;52.536;5.688;2024-02-15T10:25:26;12.80;96.90
55785;DHT22;41709;52.536;5.688;2024-02-15T10:28:01;12.80;96.90
55785;DHT22;41709;52.536;5.688;2024-02-15T10:30:27;12.80;97.20
55785;DHT22;41709;52.536;5.688;2024-02-15T10:32:54;12.80;96.90
55785;DHT22;41709;52.536;5.688;2024-02-15T10:35:22;12.80;96.90
55785;DHT22;41709;52.536;5.688;2024-02-15T10:37:48;12.80;97.00
55785;DHT22;41709;52.536;5.688;2024-02-15T10:40:18;12.80;97.00
55785;DHT22;41709;52.536;5.688;2024-02-15T10:42:48;12.80;97.00
55785;DHT22;41709;52.536;5.688;2024-02-15T10:45:15;12.80;97.00
55785;DHT22;41709;52.536;5.688;2024-02-15T10:47:44;12.90;96.90
55785;DHT22;41709;52.536;5.688;2024-02-15T10:50:11;12.90;97.00
55785;DHT22;41709;52.536;5.688;2024-02-15T10:52:48;12.90;96.90
55785;DHT22;41709;52.536;5.688;2024-02-15T10:55:25;12.90;96.80
55785;DHT22;41709;52.536;5.688;2024-02-15T10:57:52;12.90;96.80
55785;DHT22;41709;52.536;5.688;2024-02-15T11:00:21;12.90;96.80
55785;DHT22;41709;52.536;5.688;2024-02-15T11:03:01;12.90;96.70
55785;DHT22;41709;52.536;5.688;2024-02-15T11:05:35;12.90;96.80
55785;DHT22;41709;52.536;5.688;2024-02-15T11:08:06;13.00;96.70
55785;DHT22;41709;52.536;5.688;2024-02-15T11:10:34;13.00;96.80
55785;DHT22;41709;52.536;5.688;2024-02-15T11:13:00;13.00;96.70
55785;DHT22;41709;52.536;5.688;2024-02-15T11:18:05;13.00;96.80
55785;DHT22;41709;52.536;5.688;2024-02-15T11:23:01;13.10;96.70
55785;DHT22;41709;52.536;5.688;2024-02-15T11:25:38;13.10;96.70
55785;DHT22;41709;52.536;5.688;2024-02-15T11:30:49;13.10;96.50
55785;DHT22;41709;52.536;5.688;2024-02-15T11:33:29;13.10;96.60
55785;DHT22;41709;52.536;5.688;2024-02-15T11:36:09;13.10;96.90
55785;DHT22;41709;52.536;5.688;2024-02-15T11:38:36;13.20;96.50
55785;DHT22;41709;52.536;5.688;2024-02-15T11:41:05;13.20;96.40
55785;DHT22;41709;52.536;5.688;2024-02-15T11:44:01;13.20;96.40
55785;DHT22;41709;52.536;5.688;2024-02-15T11:46:27;13.20;96.50
55785;DHT22;41709;52.536;5.688;2024-02-15T11:48:58;13.20;96.40
55785;DHT22;41709;52.536;5.688;2024-02-15T11:51:35;13.20;96.30
55785;DHT22;41709;52.536;5.688;2024-02-15T11:54:11;13.20;96.30
55785;DHT22;41709;52.536;5.688;2024-02-15T11:59:08;13.30;96.60
55785;DHT22;41709;52.536;5.688;2024-02-15T12:01:38;13.30;96.40
55785;DHT22;41709;52.536;5.688;2024-02-15T12:04:22;13.30;96.20
55785;DHT22;41709;52.536;5.688;2024-02-15T12:07:07;13.40;96.20
55785;DHT22;41709;52.536;5.688;2024-02-15T12:09:58;13.30;96.10
55785;DHT22;41709;52.536;5.688;2024-02-15T12:12:51;13.40;96.10
55785;DHT22;41709;52.536;5.688;2024-02-15T12:15:35;13.40;96.00
55785;DHT22;41709;52.536;5.688;2024-02-15T12:18:19;13.40;96.00
55785;DHT22;41709;52.536;5.688;2024-02-15T12:21:04;13.40;96.00
55785;DHT22;41709;52.536;5.688;2024-02-15T12:23:31;13.30;96.00
55785;DHT22;41709;52.536;5.688;2024-02-15T12:26:00;13.40;96.00
55785;DHT22;41709;52.536;5.688;2024-02-15T12:28:25;13.40;96.10
55785;DHT22;41709;52.536;5.688;2024-02-15T12:30:55;13.40;96.00
55785;DHT22;41709;52.536;5.688;2024-02-15T12:33:23;13.50;96.10
55785;DHT22;41709;52.536;5.688;2024-02-15T12:35:49;13.40;96.00
55785;DHT22;41709;52.536;5.688;2024-02-15T12:38:18;13.50;96.10
55785;DHT22;41709;52.536;5.688;2024-02-15T12:40:44;13.50;96.10
55785;DHT22;41709;52.536;5.688;2024-02-15T12:43:10;13.60;96.10
55785;DHT22;41709;52.536;5.688;2024-02-15T12:45:38;13.60;96.10
55785;DHT22;41709;52.536;5.688;2024-02-15T12:48:05;13.60;96.00
55785;DHT22;41709;52.536;5.688;2024-02-15T12:50:31;13.60;95.90
55785;DHT22;41709;52.536;5.688;2024-02-15T12:52:57;13.60;95.90
55785;DHT22;41709;52.536;5.688;2024-02-15T12:55:30;13.70;96.00
55785;DHT22;41709;52.536;5.688;2024-02-15T12:58:04;13.70;95.90
55785;DHT22;41709;52.536;5.688;2024-02-15T13:00:34;13.70;96.20
55785;DHT22;41709;52.536;5.688;2024-02-15T13:03:06;13.70;96.00
55785;DHT22;41709;52.536;5.688;2024-02-15T13:05:35;13.80;96.00
55785;DHT22;41709;52.536;5.688;2024-02-15T13:08:04;13.80;96.00
55785;DHT22;41709;52.536;5.688;2024-02-15T13:10:38;13.80;96.00
55785;DHT22;41709;52.536;5.688;2024-02-15T13:13:04;13.90;96.00
55785;DHT22;41709;52.536;5.688;2024-02-15T13:15:31;13.90;95.90
55785;DHT22;41709;52.536;5.688;2024-02-15T13:18:00;14.00;95.90
55785;DHT22;41709;52.536;5.688;2024-02-15T13:20:26;14.00;95.90
55785;DHT22;41709;52.536;5.688;2024-02-15T13:23:01;14.00;95.90
55785;DHT22;41709;52.536;5.688;2024-02-15T13:25:54;14.00;95.90
55785;DHT22;41709;52.536;5.688;2024-02-15T13:28:22;14.00;95.90
55785;DHT22;41709;52.536;5.688;2024-02-15T13:30:48;14.00;95.90
55785;DHT22;41709;52.536;5.688;2024-02-15T13:33:14;14.10;95.90
55785;DHT22;41709;52.536;5.688;2024-02-15T13:35:40;14.10;95.80
55785;DHT22;41709;52.536;5.688;2024-02-15T13:38:06;14.20;95.80
55785;DHT22;41709;52.536;5.688;2024-02-15T13:40:34;14.20;95.80
55785;DHT22;41709;52.536;5.688;2024-02-15T13:43:01;14.20;95.80
55785;DHT22;41709;52.536;5.688;2024-02-15T13:45:38;14.30;95.90
55785;DHT22;41709;52.536;5.688;2024-02-15T13:48:05;14.30;96.00
55785;DHT22;41709;52.536;5.688;2024-02-15T13:50:32;14.40;96.10
55785;DHT22;41709;52.536;5.688;2024-02-15T13:52:58;14.50;96.10
55785;DHT22;41709;52.536;5.688;2024-02-15T13:55:25;14.60;95.90
55785;DHT22;41709;52.536;5.688;2024-02-15T13:57:55;14.60;95.70
55785;DHT22;41709;52.536;5.688;2024-02-15T14:00:24;14.70;95.70
55785;DHT22;41709;52.536;5.688;2024-02-15T14:02:59;14.80;95.70
55785;DHT22;41709;52.536;5.688;2024-02-15T14:05:27;14.90;95.70
55785;DHT22;41709;52.536;5.688;2024-02-15T14:08:00;14.90;95.50
55785;DHT22;41709;52.536;5.688;2024-02-15T14:10:28;15.00;95.30
55785;DHT22;41709;52.536;5.688;2024-02-15T14:12:54;15.10;95.20
55785;DHT22;41709;52.536;5.688;2024-02-15T14:15:29;15.10;95.10
55785;DHT22;41709;52.536;5.688;2024-02-15T14:17:55;15.20;95.00
55785;DHT22;41709;52.536;5.688;2024-02-15T14:20:21;15.30;95.30
55785;DHT22;41709;52.536;5.688;2024-02-15T14:22:49;15.50;95.20
55785;DHT22;41709;52.536;5.688;2024-02-15T14:25:18;15.70;94.70
55785;DHT22;41709;52.536;5.688;2024-02-15T14:27:44;15.90;94.10
55785;DHT22;41709;52.536;5.688;2024-02-15T14:30:10;16.00;93.90
55785;DHT22;41709;52.536;5.688;2024-02-15T14:32:54;16.10;93.50
55785;DHT22;41709;52.536;5.688;2024-02-15T14:35:27;16.20;93.20
55785;DHT22;41709;52.536;5.688;2024-02-15T14:37:55;16.20;92.90
55785;DHT22;41709;52.536;5.688;2024-02-15T14:40:24;16.30;93.40
55785;DHT22;41709;52.536;5.688;2024-02-15T14:42:50;16.30;92.80
55785;DHT22;41709;52.536;5.688;2024-02-15T14:45:16;16.30;92.80
55785;DHT22;41709;52.536;5.688;2024-02-15T14:47:41;16.30;92.70
55785;DHT22;41709;52.536;5.688;2024-02-15T14:50:09;16.20;92.60
55785;DHT22;41709;52.536;5.688;2024-02-15T14:52:38;16.30;92.50
55785;DHT22;41709;52.536;5.688;2024-02-15T14:55:04;16.30;92.40
55785;DHT22;41709;52.536;5.688;2024-02-15T14:57:31;16.20;92.20
55785;DHT22;41709;52.536;5.688;2024-02-15T14:59:58;16.20;92.30
55785;DHT22;41709;52.536;5.688;2024-02-15T15:02:24;16.20;92.20
55785;DHT22;41709;52.536;5.688;2024-02-15T15:04:49;16.20;92.20
55785;DHT22;41709;52.536;5.688;2024-02-15T15:07:34;16.10;92.10
55785;DHT22;41709;52.536;5.688;2024-02-15T15:10:18;16.10;92.10
55785;DHT22;41709;52.536;5.688;2024-02-15T15:13:02;16.00;92.10
55785;DHT22;41709;52.536;5.688;2024-02-15T15:15:28;16.00;92.20
55785;DHT22;41709;52.536;5.688;2024-02-15T15:17:54;16.00;92.40
55785;DHT22;41709;52.536;5.688;2024-02-15T15:20:21;15.90;92.10
55785;DHT22;41709;52.536;5.688;2024-02-15T15:22:46;15.80;92.10
55785;DHT22;41709;52.536;5.688;2024-02-15T15:25:12;15.80;92.10
55785;DHT22;41709;52.536;5.688;2024-02-15T15:27:38;15.80;92.20
55785;DHT22;41709;52.536;5.688;2024-02-15T15:30:05;15.70;92.20
55785;DHT22;41709;52.536;5.688;2024-02-15T15:32:31;15.70;92.10
55785;DHT22;41709;52.536;5.688;2024-02-15T15:34:57;15.70;92.20
55785;DHT22;41709;52.536;5.688;2024-02-15T15:37:23;15.60;92.30
55785;DHT22;41709;52.536;5.688;2024-02-15T15:39:49;15.60;92.30
55785;DHT22;41709;52.536;5.688;2024-02-15T15:42:15;15.50;92.20
55785;DHT22;41709;52.536;5.688;2024-02-15T15:44:42;15.50;92.20
55785;DHT22;41709;52.536;5.688;2024-02-15T15:47:07;15.50;92.20
55785;DHT22;41709;52.536;5.688;2024-02-15T15:49:33;15.50;92.30
55785;DHT22;41709;52.536;5.688;2024-02-15T15:52:00;15.50;92.30
55785;DHT22;41709;52.536;5.688;2024-02-15T15:54:25;15.50;92.30